Weslaco Annex Farm's Hourly Summary for Friday, March 17, 2017
Hour Temp
(f)
RH
(%)
Solar Rad.
(MJ/m2)
Rainfall
(in)
Wind
(mph)
3/17/2017 12:00 AM 69 88 0 0 5.19
3/17/2017 1:00 AM 69 89 0 0 5.72
3/17/2017 2:00 AM 69 89 0 0 6.05
3/17/2017 3:00 AM 69 90 0 0 5.24
3/17/2017 4:00 AM 68 90 0 0 6.08
3/17/2017 5:00 AM 68 91 0 0 5
3/17/2017 6:00 AM 67 92 0 0 5.6
3/17/2017 7:00 AM 67 93 0.01 0 4.79
3/17/2017 8:00 AM 69 90 0.22 0 6.05
3/17/2017 9:00 AM 73 82 0.61 0 8.44
3/17/2017 10:00 AM 76 74 0.94 0 12.32
3/17/2017 11:00 AM 79 65 1.27 0 12.62
3/17/2017 12:00 PM 81 59 1.47 0 12.92
3/17/2017 1:00 PM 82 57 1.37 0 12.2
3/17/2017 2:00 PM 81 57 0.93 0 10.51
3/17/2017 3:00 PM 80 60 0.75 0 10.37
3/17/2017 4:00 PM 79 61 0.66 0 9.97
3/17/2017 5:00 PM 80 59 0.74 0 9.52
3/17/2017 6:00 PM 77 61 0.25 0 9.18
3/17/2017 7:00 PM 75 68 0.04 0 7.52
3/17/2017 8:00 PM 73 74 0 0 5.13
3/17/2017 9:00 PM 71 80 0 0 4
3/17/2017 10:00 PM 70 85 0 0 2.9
3/17/2017 11:00 PM 68 90 0 0 1.69
Data Summary 73 76 9.26 0.00 7.46